Time;durP1;ratioP1;P1;durP2;ratioP2;P2;SDS_P1;SDS_P2;PMS_P1;PMS_P2;Temp;Humidity;BMP_temperature;BMP_pressure;BME280_temperature;BME280_humidity;BME280_pressure;Samples;Min_cycle;Max_cycle;Signal;HPM_P1;HPM_P2
2022/06/18 00:00:39;;;;;;;1.60;0.87;;;24.70;56.50;;;;;;4938285;29;20576;-79
2022/06/18 00:03:05;;;;;;;6.10;1.20;;;24.70;56.40;;;;;;4956192;29;20618;-79
2022/06/18 00:05:34;;;;;;;1.77;0.80;;;24.70;56.50;;;;;;4956646;29;20192;-79
2022/06/18 00:08:00;;;;;;;2.00;1.13;;;24.70;56.70;;;;;;4961898;29;20204;-79
2022/06/18 00:10:29;;;;;;;2.17;1.00;;;24.70;56.70;;;;;;4957921;29;20576;-80
2022/06/18 00:15:51;;;;;;;1.90;1.00;;;24.70;57.00;;;;;;4955654;29;21152;-80
2022/06/18 00:18:17;;;;;;;1.70;1.10;;;24.70;57.00;;;;;;4966305;28;21146;-80
2022/06/18 00:20:43;;;;;;;2.40;1.07;;;24.60;57.10;;;;;;4974151;28;20593;-80
2022/06/18 00:23:15;;;;;;;2.47;1.30;;;24.70;57.30;;;;;;4974930;28;20665;-80
2022/06/18 00:25:45;;;;;;;2.40;0.83;;;24.60;57.40;;;;;;4957691;28;20203;-79
2022/06/18 00:28:14;;;;;;;2.37;1.00;;;24.60;57.40;;;;;;4974510;28;21205;-79
2022/06/18 00:30:39;;;;;;;1.70;1.00;;;24.60;57.50;;;;;;4956563;28;20591;-80
2022/06/18 00:33:07;;;;;;;3.10;1.10;;;24.60;57.60;;;;;;4957671;28;21186;-79
2022/06/18 00:35:34;;;;;;;1.87;1.20;;;24.60;57.70;;;;;;4957527;28;21147;-79
2022/06/18 00:38:02;;;;;;;1.53;1.00;;;24.60;57.80;;;;;;4974697;28;20586;-79
2022/06/18 00:40:37;;;;;;;1.87;0.90;;;24.60;57.80;;;;;;4973926;28;20595;-79
2022/06/18 00:43:10;;;;;;;2.13;1.00;;;24.60;57.90;;;;;;4976191;28;20657;-78
2022/06/18 00:45:36;;;;;;;2.20;1.10;;;24.70;58.00;;;;;;4958862;28;20623;-80
2022/06/18 00:48:28;;;;;;;2.27;1.00;;;24.70;58.00;;;;;;4956979;28;21138;-79
2022/06/18 00:51:00;;;;;;;4.50;1.20;;;24.60;58.10;;;;;;4936629;28;20555;-80
2022/06/18 00:53:31;;;;;;;2.37;1.03;;;24.60;58.00;;;;;;4957309;28;20602;-80
2022/06/18 00:56:19;;;;;;;1.73;0.87;;;24.60;58.00;;;;;;4957451;28;20575;-80
2022/06/18 00:59:13;;;;;;;2.17;0.90;;;24.60;58.20;;;;;;4974618;28;21181;-79
2022/06/18 01:01:43;;;;;;;2.10;1.00;;;24.60;58.30;;;;;;4956431;28;20587;-78
2022/06/18 01:04:28;;;;;;;2.17;1.00;;;24.70;58.30;;;;;;4972851;28;20606;-79
2022/06/18 01:07:22;;;;;;;2.30;1.10;;;24.60;58.40;;;;;;4941060;28;21437;-79
2022/06/18 01:09:51;;;;;;;2.30;1.17;;;24.60;58.50;;;;;;4956627;28;20611;-79
2022/06/18 01:12:17;;;;;;;3.73;1.37;;;24.60;58.30;;;;;;4973687;28;20572;-78
2022/06/18 01:14:44;;;;;;;2.90;1.07;;;24.60;58.60;;;;;;4973202;28;20690;-79
2022/06/18 01:17:10;;;;;;;2.00;0.90;;;24.60;58.70;;;;;;4956660;28;20559;-78
2022/06/18 01:19:44;;;;;;;2.50;0.73;;;24.60;58.80;;;;;;4975316;28;20567;-79
2022/06/18 01:22:28;;;;;;;1.80;0.80;;;24.50;59.10;;;;;;4957166;28;20575;-79
2022/06/18 01:24:56;;;;;;;1.90;0.90;;;24.50;59.10;;;;;;4956441;28;20670;-79
2022/06/18 01:27:23;;;;;;;3.33;1.20;;;24.50;59.10;;;;;;4972674;28;21005;-79
2022/06/18 01:29:50;;;;;;;1.87;0.93;;;24.40;59.20;;;;;;4956370;28;20168;-79
2022/06/18 01:32:17;;;;;;;2.17;1.10;;;24.40;59.30;;;;;;4956013;28;20622;-78
2022/06/18 01:34:45;;;;;;;1.63;0.83;;;24.50;59.50;;;;;;4956589;28;20611;-78
2022/06/18 01:37:12;;;;;;;1.70;0.80;;;24.40;59.50;;;;;;4956279;28;20590;-78
2022/06/18 01:39:42;;;;;;;3.60;1.10;;;24.40;59.70;;;;;;4956199;28;21138;-79
2022/06/18 01:42:16;;;;;;;2.97;1.00;;;24.40;59.80;;;;;;4955840;28;20583;-79
2022/06/18 01:44:56;;;;;;;3.10;1.10;;;24.40;60.00;;;;;;4940020;28;20685;-79
2022/06/18 01:47:40;;;;;;;2.00;0.90;;;24.30;60.20;;;;;;4956210;28;20925;-78
2022/06/18 01:50:20;;;;;;;1.77;0.90;;;24.30;60.20;;;;;;4955868;28;20606;-78
2022/06/18 01:52:53;;;;;;;5.17;1.07;;;24.30;60.50;;;;;;4924252;28;21240;-78
2022/06/18 01:55:26;;;;;;;2.07;1.00;;;24.30;60.80;;;;;;4948270;28;20590;-78
2022/06/18 01:57:57;;;;;;;3.73;1.17;;;24.20;61.20;;;;;;4977747;28;20598;-78
2022/06/18 02:00:26;;;;;;;2.00;0.90;;;24.20;62.10;;;;;;4939769;28;21004;-79
2022/06/18 02:03:00;;;;;;;2.10;0.90;;;24.10;61.70;;;;;;4971874;28;20599;-79
2022/06/18 02:05:27;;;;;;;2.20;0.80;;;24.10;61.90;;;;;;4955777;28;20651;-79
2022/06/18 02:07:56;;;;;;;2.30;1.00;;;24.00;62.20;;;;;;4955987;28;20583;-79
2022/06/18 02:10:28;;;;;;;2.37;1.00;;;24.00;62.60;;;;;;4939504;28;21131;-79
2022/06/18 02:12:58;;;;;;;1.83;1.10;;;24.00;63.20;;;;;;4955859;28;20689;-79
2022/06/18 02:15:30;;;;;;;2.33;1.10;;;24.00;63.70;;;;;;4972759;28;20626;-79
2022/06/18 02:17:59;;;;;;;2.10;1.07;;;24.00;63.80;;;;;;4972969;28;20641;-79
2022/06/18 02:20:28;;;;;;;2.40;0.90;;;23.90;64.30;;;;;;4972212;28;20572;-79
2022/06/18 02:22:56;;;;;;;3.20;1.30;;;23.90;64.00;;;;;;4955952;28;21094;-78
2022/06/18 02:25:29;;;;;;;2.87;1.13;;;23.90;64.40;;;;;;4971718;28;20727;-78
2022/06/18 02:27:58;;;;;;;2.43;0.97;;;23.90;64.80;;;;;;4973061;28;20602;-79
2022/06/18 02:30:27;;;;;;;2.17;1.00;;;23.90;64.80;;;;;;4972386;28;20673;-78
2022/06/18 02:33:21;;;;;;;1.90;1.00;;;23.90;65.10;;;;;;4957387;28;20607;-80
2022/06/18 02:35:47;;;;;;;2.90;0.90;;;23.90;66.00;;;;;;4972902;28;20602;-80
2022/06/18 02:38:21;;;;;;;2.60;1.00;;;23.80;65.60;;;;;;4971975;28;20969;-79
2022/06/18 02:40:48;;;;;;;2.37;1.40;;;23.80;66.60;;;;;;4955067;28;20602;-80
2022/06/18 02:43:15;;;;;;;2.40;1.13;;;23.80;66.20;;;;;;4956181;28;20623;-80
2022/06/18 02:45:43;;;;;;;2.87;1.20;;;23.80;66.70;;;;;;4955734;28;20627;-80
2022/06/18 02:48:10;;;;;;;1.90;1.07;;;23.80;67.10;;;;;;4972912;28;21411;-80
2022/06/18 02:50:40;;;;;;;3.43;1.00;;;23.80;67.40;;;;;;4971313;28;20556;-80
2022/06/18 02:53:09;;;;;;;2.90;1.33;;;23.70;67.50;;;;;;4955641;28;20649;-80
2022/06/18 02:55:42;;;;;;;2.17;0.90;;;23.70;67.50;;;;;;4955716;28;20603;-79
2022/06/18 02:58:17;;;;;;;2.47;0.80;;;23.70;68.30;;;;;;4972407;28;20586;-80
2022/06/18 03:00:46;;;;;;;2.30;1.00;;;23.70;68.40;;;;;;4971868;28;20569;-80
2022/06/18 03:03:15;;;;;;;1.97;1.00;;;23.70;69.10;;;;;;4956330;28;20607;-79
2022/06/18 03:05:42;;;;;;;1.60;1.00;;;23.70;69.80;;;;;;4940063;28;21311;-79
2022/06/18 03:08:08;;;;;;;2.23;1.00;;;23.70;69.40;;;;;;4973156;28;20670;-79
2022/06/18 03:13:20;;;;;;;3.40;1.00;;;23.70;69.60;;;;;;4955942;28;20925;-80
2022/06/18 03:15:51;;;;;;;2.97;1.10;;;23.70;69.60;;;;;;4955361;28;20717;-80
2022/06/18 03:18:21;;;;;;;2.90;0.90;;;23.60;70.20;;;;;;4957022;28;20564;-80
2022/06/18 03:21:24;;;;;;;2.23;1.67;;;23.60;70.30;;;;;;4944454;28;20567;-80
2022/06/18 03:23:49;;;;;;;2.53;1.00;;;23.60;71.20;;;;;;4955428;28;20601;-79
2022/06/18 03:26:17;;;;;;;2.20;1.10;;;23.60;70.70;;;;;;4972699;28;20611;-79
2022/06/18 03:28:49;;;;;;;4.47;0.90;;;23.60;71.20;;;;;;4958237;28;20170;-79
2022/06/18 03:31:15;;;;;;;4.10;1.30;;;23.60;71.50;;;;;;4974305;28;20574;-80
2022/06/18 03:33:42;;;;;;;2.60;1.00;;;23.60;71.80;;;;;;4974686;28;20611;-80
2022/06/18 03:36:11;;;;;;;3.90;1.27;;;23.60;72.60;;;;;;4974773;28;20574;-77
2022/06/18 03:38:38;;;;;;;2.33;1.00;;;23.60;72.60;;;;;;4958748;28;20626;-79
2022/06/18 03:41:04;;;;;;;2.87;1.03;;;23.60;72.30;;;;;;4973993;28;20571;-79
2022/06/18 03:43:31;;;;;;;2.30;1.00;;;23.60;72.50;;;;;;4974243;28;20653;-80
2022/06/18 03:46:02;;;;;;;2.37;1.03;;;23.60;72.50;;;;;;4947211;28;20995;-80
2022/06/18 03:48:35;;;;;;;2.90;1.10;;;23.60;72.80;;;;;;4958466;28;20574;-80
2022/06/18 03:51:02;;;;;;;2.30;1.10;;;23.70;73.00;;;;;;4957904;28;20571;-80
2022/06/18 03:53:27;;;;;;;1.80;0.90;;;23.60;72.80;;;;;;4958164;28;20606;-80
2022/06/18 03:55:53;;;;;;;2.30;0.80;;;23.70;72.90;;;;;;4975787;28;20622;-80
2022/06/18 03:58:20;;;;;;;4.90;1.17;;;23.70;73.00;;;;;;4957928;28;20183;-80
2022/06/18 04:00:49;;;;;;;2.30;1.00;;;23.70;73.10;;;;;;4957631;28;20579;-77
2022/06/18 04:03:15;;;;;;;4.53;1.00;;;23.70;73.30;;;;;;4958267;28;20975;-84
2022/06/18 04:05:43;;;;;;;2.07;1.23;;;23.70;73.40;;;;;;4958018;28;20621;-82
2022/06/18 04:08:17;;;;;;;2.80;1.30;;;23.70;74.00;;;;;;4958166;28;20575;-83
2022/06/18 04:10:49;;;;;;;2.53;1.00;;;23.70;74.50;;;;;;4957438;28;20567;-82
2022/06/18 04:13:15;;;;;;;2.90;0.90;;;23.80;74.30;;;;;;4941677;28;20591;-83
2022/06/18 04:16:06;;;;;;;1.80;1.20;;;23.80;74.30;;;;;;4956035;28;20598;-83
2022/06/18 04:18:34;;;;;;;3.10;1.10;;;23.90;74.50;;;;;;4958176;28;20682;-83
2022/06/18 04:21:03;;;;;;;2.63;1.20;;;23.90;74.70;;;;;;4973499;28;20963;-83
2022/06/18 04:23:32;;;;;;;2.10;1.00;;;23.90;74.90;;;;;;4963999;28;20593;-83
2022/06/18 04:25:58;;;;;;;1.80;1.00;;;23.90;74.90;;;;;;4958373;28;20624;-83
2022/06/18 04:28:25;;;;;;;1.90;1.00;;;23.90;75.40;;;;;;4957946;28;20279;-83
2022/06/18 04:30:58;;;;;;;2.67;1.13;;;23.90;75.30;;;;;;4957253;28;20571;-83
2022/06/18 04:33:39;;;;;;;1.90;0.90;;;23.90;75.40;;;;;;4942009;28;20622;-82
2022/06/18 04:36:31;;;;;;;2.80;1.03;;;24.00;75.70;;;;;;4958161;28;20736;-83
2022/06/18 04:38:58;;;;;;;2.33;1.00;;;24.00;75.80;;;;;;4957445;28;20583;-83
2022/06/18 04:41:36;;;;;;;2.90;0.80;;;24.10;75.90;;;;;;4940519;28;20681;-82
2022/06/18 04:44:10;;;;;;;1.97;1.00;;;24.20;76.10;;;;;;4957568;28;20623;-83
2022/06/18 04:46:37;;;;;;;2.63;0.93;;;24.20;76.20;;;;;;4973506;28;20717;-83
2022/06/18 04:49:03;;;;;;;2.23;0.80;;;24.20;76.50;;;;;;4975203;28;20662;-83
2022/06/18 04:51:29;;;;;;;4.17;1.00;;;24.30;76.40;;;;;;4957216;28;20594;-83
2022/06/18 04:53:55;;;;;;;3.17;1.20;;;24.30;76.40;;;;;;4957754;28;20673;-83
2022/06/18 04:56:21;;;;;;;7.40;1.00;;;24.40;76.60;;;;;;4941521;28;21147;-83
2022/06/18 04:58:48;;;;;;;2.10;1.13;;;24.40;76.50;;;;;;4941402;28;20963;-83
2022/06/18 05:01:17;;;;;;;5.13;1.30;;;24.40;76.60;;;;;;4978114;28;20577;-84
2022/06/18 05:03:58;;;;;;;1.90;0.80;;;24.50;76.70;;;;;;4973160;28;20623;-83
2022/06/18 05:06:38;;;;;;;2.83;0.90;;;24.50;76.60;;;;;;4957312;28;20654;-83
2022/06/18 05:09:18;;;;;;;1.60;0.97;;;24.70;76.80;;;;;;4957319;28;20571;-83
2022/06/18 05:11:57;;;;;;;1.60;0.90;;;24.70;76.80;;;;;;4972623;28;20606;-83
2022/06/18 05:14:43;;;;;;;3.97;1.13;;;24.80;76.80;;;;;;4959665;28;20618;-84
2022/06/18 05:17:21;;;;;;;3.20;1.33;;;24.80;76.70;;;;;;4957387;28;20574;-76
2022/06/18 05:19:48;;;;;;;5.03;1.07;;;24.90;76.90;;;;;;4956600;28;20571;-76
2022/06/18 05:22:19;;;;;;;1.93;0.93;;;25.00;76.80;;;;;;4939963;28;20682;-76
2022/06/18 05:24:46;;;;;;;2.53;1.20;;;25.00;76.80;;;;;;4955445;28;20673;-76
2022/06/18 05:27:33;;;;;;;1.60;0.97;;;25.20;76.80;;;;;;4956062;28;20583;-75
2022/06/18 05:30:12;;;;;;;1.70;1.00;;;25.30;76.80;;;;;;4956656;28;20587;-78
2022/06/18 05:32:45;;;;;;;4.80;0.90;;;25.40;76.60;;;;;;4941172;28;20567;-78
2022/06/18 05:35:12;;;;;;;1.90;1.07;;;25.60;76.40;;;;;;4940587;28;20575;-78
2022/06/18 05:37:41;;;;;;;2.00;0.90;;;25.70;76.30;;;;;;4957067;28;20575;-78
2022/06/18 05:40:08;;;;;;;2.93;1.13;;;25.90;76.20;;;;;;4955719;28;20928;-78
2022/06/18 05:42:34;;;;;;;2.70;1.23;;;26.10;76.10;;;;;;4935938;28;20635;-79
2022/06/18 05:45:00;;;;;;;2.17;0.90;;;26.40;76.40;;;;;;4939872;28;20729;-79
2022/06/18 05:47:31;;;;;;;1.50;0.90;;;26.70;76.40;;;;;;4956154;28;20167;-78
2022/06/18 05:49:57;;;;;;;1.90;1.10;;;27.10;75.80;;;;;;4939632;28;20575;-78
2022/06/18 05:52:26;;;;;;;1.83;0.93;;;27.40;75.30;;;;;;4938978;28;20590;-78
2022/06/18 05:54:52;;;;;;;2.60;1.10;;;27.90;75.10;;;;;;4955596;28;20571;-78
2022/06/18 05:57:50;;;;;;;2.80;0.90;;;28.40;74.10;;;;;;4948017;28;20587;-78
2022/06/18 06:00:24;;;;;;;1.87;1.00;;;28.80;72.70;;;;;;4939436;28;20575;-79
2022/06/18 06:02:53;;;;;;;1.87;1.10;;;29.50;72.10;;;;;;4954230;28;20626;-77
2022/06/18 06:05:19;;;;;;;2.73;0.90;;;30.00;71.10;;;;;;4939769;28;20627;-75
2022/06/18 06:07:49;;;;;;;2.77;1.00;;;30.50;70.20;;;;;;4955621;28;20578;-76
2022/06/18 06:13:02;;;;;;;2.07;1.10;;;31.50;67.10;;;;;;4956726;28;20610;-77
2022/06/18 06:15:28;;;;;;;1.70;1.00;;;32.10;65.80;;;;;;4956872;28;21173;-77
2022/06/18 06:17:54;;;;;;;1.43;0.73;;;32.50;64.60;;;;;;4923875;28;20180;-77
2022/06/18 06:20:27;;;;;;;4.43;1.20;;;32.90;63.10;;;;;;4939112;28;20181;-80
2022/06/18 06:22:53;;;;;;;3.40;1.10;;;33.20;60.80;;;;;;4939437;28;20604;-78
2022/06/18 06:25:19;;;;;;;5.30;1.00;;;33.60;59.70;;;;;;4954848;28;21034;-79
2022/06/18 06:27:45;;;;;;;1.90;1.00;;;33.90;58.80;;;;;;4939024;29;20263;-77
2022/06/18 06:30:16;;;;;;;3.10;1.10;;;34.30;58.90;;;;;;4936410;29;20176;-78
2022/06/18 06:32:43;;;;;;;1.80;1.10;;;34.60;56.90;;;;;;4953041;28;20175;-78
2022/06/18 06:35:09;;;;;;;2.77;1.03;;;34.80;56.20;;;;;;4954477;29;20613;-75
2022/06/18 06:37:35;;;;;;;2.10;1.20;;;35.10;55.90;;;;;;4936096;29;20925;-75
2022/06/18 06:40:02;;;;;;;3.30;0.97;;;35.50;55.60;;;;;;4953163;29;21206;-75
2022/06/18 06:42:27;;;;;;;2.47;0.93;;;35.90;54.90;;;;;;4935892;28;20588;-73
2022/06/18 06:44:54;;;;;;;2.37;1.10;;;36.20;54.10;;;;;;4935941;29;20631;-75
2022/06/18 06:47:20;;;;;;;2.90;0.97;;;36.50;53.10;;;;;;4982237;28;20254;-75
2022/06/18 06:49:46;;;;;;;2.97;0.90;;;36.50;52.00;;;;;;4977439;28;20588;-75
2022/06/18 06:52:12;;;;;;;1.87;0.70;;;36.60;51.20;;;;;;4973865;28;20661;-75
2022/06/18 06:54:38;;;;;;;2.27;0.97;;;36.70;50.70;;;;;;4959556;28;20190;-79
2022/06/18 06:57:22;;;;;;;1.40;0.90;;;36.80;50.30;;;;;;4972735;28;20942;-77
2022/06/18 06:59:49;;;;;;;2.30;0.90;;;36.90;50.10;;;;;;4972097;28;20575;-77
2022/06/18 07:02:19;;;;;;;3.77;0.80;;;37.30;50.30;;;;;;4939941;28;20571;-76
2022/06/18 07:04:45;;;;;;;1.70;0.80;;;37.70;50.50;;;;;;4959193;28;20668;-77
2022/06/18 07:07:15;;;;;;;1.70;0.80;;;38.20;49.80;;;;;;4958735;28;20618;-77
2022/06/18 07:09:41;;;;;;;3.90;1.10;;;38.40;48.30;;;;;;4958609;28;20622;-77
2022/06/18 07:12:08;;;;;;;2.73;1.23;;;38.70;47.90;;;;;;4942665;28;20637;-76
2022/06/18 07:14:36;;;;;;;2.73;1.30;;;38.80;47.10;;;;;;4959001;28;20645;-76
2022/06/18 07:17:02;;;;;;;2.43;1.00;;;39.00;46.70;;;;;;4958610;28;20677;-77
2022/06/18 07:19:28;;;;;;;5.13;1.20;;;39.30;46.50;;;;;;4942636;28;21063;-77
2022/06/18 07:21:58;;;;;;;3.70;0.90;;;39.60;46.20;;;;;;4926089;28;20638;-76
2022/06/18 07:24:27;;;;;;;1.90;1.10;;;40.00;46.20;;;;;;4924669;29;20196;-76
2022/06/18 07:26:53;;;;;;;1.70;0.80;;;40.30;45.20;;;;;;4942084;29;20590;-77
2022/06/18 07:29:20;;;;;;;2.87;0.93;;;40.80;45.20;;;;;;4923755;29;20187;-77
2022/06/18 07:31:46;;;;;;;2.23;1.00;;;40.90;44.00;;;;;;4939126;29;20533;-78
2022/06/18 07:34:12;;;;;;;2.70;1.10;;;40.90;43.10;;;;;;4939767;29;20606;-79
2022/06/18 07:36:38;;;;;;;1.40;0.80;;;40.80;42.30;;;;;;4923722;29;20164;-79
2022/06/18 07:39:04;;;;;;;1.43;0.80;;;40.90;43.10;;;;;;4923714;29;20215;-79
2022/06/18 07:41:39;;;;;;;3.00;1.10;;;41.30;43.60;;;;;;4939137;29;20596;-77
2022/06/18 07:44:15;;;;;;;2.23;0.90;;;41.50;42.10;;;;;;4923854;29;20654;-83
2022/06/18 07:46:41;;;;;;;2.03;0.90;;;41.60;42.00;;;;;;4939709;29;20638;-84
2022/06/18 07:49:07;;;;;;;1.93;0.83;;;42.00;42.40;;;;;;4956776;29;20567;-83
2022/06/18 07:51:34;;;;;;;2.00;0.90;;;42.20;41.90;;;;;;4938721;29;20557;-82
2022/06/18 07:54:00;;;;;;;1.50;0.93;;;42.50;41.60;;;;;;4939901;29;20654;-84
2022/06/18 07:56:26;;;;;;;1.90;1.00;;;42.90;41.50;;;;;;4956865;29;20603;-83
2022/06/18 07:58:52;;;;;;;3.00;0.80;;;43.40;41.20;;;;;;4956761;29;20595;-83
2022/06/18 08:01:18;;;;;;;1.37;0.83;;;43.80;40.70;;;;;;4938596;29;20545;-84
2022/06/18 08:03:43;;;;;;;2.23;0.90;;;44.20;40.00;;;;;;4959995;28;20826;-83
2022/06/18 08:06:10;;;;;;;1.57;1.00;;;44.60;40.00;;;;;;4939383;28;20204;-83
2022/06/18 08:08:36;;;;;;;1.60;0.97;;;44.90;39.00;;;;;;4933162;28;20194;-84
2022/06/18 08:11:05;;;;;;;3.60;1.30;;;45.10;37.90;;;;;;4957245;28;20955;-83
2022/06/18 08:13:30;;;;;;;3.60;0.90;;;44.90;36.90;;;;;;4941868;28;20615;-84
2022/06/18 08:15:57;;;;;;;1.40;0.70;;;44.80;37.60;;;;;;4957960;28;20622;-84
2022/06/18 08:18:22;;;;;;;4.30;1.07;;;45.00;37.40;;;;;;4942369;28;20178;-84
2022/06/18 08:20:48;;;;;;;2.80;0.87;;;45.20;37.50;;;;;;4942406;28;20568;-84
2022/06/18 08:23:14;;;;;;;2.40;0.90;;;45.40;37.50;;;;;;4978454;28;20187;-84
2022/06/18 08:25:42;;;;;;;1.73;0.90;;;45.70;37.10;;;;;;4985878;28;20188;-83
2022/06/18 08:28:10;;;;;;;1.50;0.80;;;45.90;35.90;;;;;;4975534;28;20603;-84
2022/06/18 08:30:36;;;;;;;3.23;1.10;;;46.00;36.40;;;;;;4969765;28;20591;-82
2022/06/18 08:33:03;;;;;;;1.50;1.00;;;46.30;36.30;;;;;;4991560;28;20631;-87
2022/06/18 08:35:29;;;;;;;1.77;0.90;;;46.50;36.20;;;;;;4989845;28;20639;-84
2022/06/18 08:37:56;;;;;;;2.27;1.00;;;46.80;36.70;;;;;;4989631;28;20665;-84
2022/06/18 08:40:36;;;;;;;2.90;1.07;;;47.00;35.60;;;;;;4959008;29;20584;-84
2022/06/18 08:43:27;;;;;;;1.70;1.03;;;47.30;35.00;;;;;;4984778;28;20615;-84
2022/06/18 08:46:06;;;;;;;2.60;1.13;;;47.40;34.70;;;;;;4925591;29;20588;-84
2022/06/18 08:48:53;;;;;;;3.00;1.50;;;47.60;34.90;;;;;;4955599;29;20607;-84
2022/06/18 08:51:44;;;;;;;3.80;1.23;;;47.80;34.50;;;;;;4937565;29;20571;-84
2022/06/18 08:54:18;;;;;;;2.93;1.03;;;48.00;34.00;;;;;;4956135;28;20691;-86
2022/06/18 08:56:53;;;;;;;1.77;0.90;;;48.10;33.10;;;;;;4956144;29;20617;-84
2022/06/18 08:59:26;;;;;;;1.70;1.00;;;48.10;32.20;;;;;;4922771;29;20576;-83
2022/06/18 09:02:01;;;;;;;3.00;1.33;;;48.20;32.60;;;;;;4937523;29;20568;-83
2022/06/18 09:05:05;;;;;;;2.30;1.13;;;48.20;32.30;;;;;;4937860;29;20686;-82
2022/06/18 09:07:49;;;;;;;2.40;1.00;;;48.30;32.50;;;;;;4955420;29;20564;-82
2022/06/18 09:10:38;;;;;;;3.40;1.77;;;48.40;31.90;;;;;;4955594;29;20592;-83
2022/06/18 09:13:12;;;;;;;2.80;1.10;;;48.50;31.70;;;;;;4940078;29;20618;-82
2022/06/18 09:15:44;;;;;;;1.80;1.00;;;48.50;31.50;;;;;;4932458;28;20631;-82
2022/06/18 09:18:18;;;;;;;3.70;1.10;;;48.60;31.10;;;;;;4953655;28;20597;-82
2022/06/18 09:20:55;;;;;;;3.00;1.10;;;48.60;31.20;;;;;;4956924;28;20583;-83
2022/06/18 09:24:05;;;;;;;1.60;1.10;;;48.70;31.20;;;;;;4954698;28;21233;-82
2022/06/18 09:26:41;;;;;;;2.47;1.10;;;48.90;30.90;;;;;;4857707;29;20619;-82
2022/06/18 09:29:16;;;;;;;2.10;1.20;;;49.10;31.00;;;;;;4941885;29;20599;-82
2022/06/18 09:31:57;;;;;;;2.27;1.00;;;49.10;30.50;;;;;;4936680;29;20609;-82
2022/06/18 09:34:49;;;;;;;5.73;1.20;;;49.10;30.30;;;;;;4953335;28;20600;-82
2022/06/18 09:37:25;;;;;;;2.40;1.10;;;49.20;30.60;;;;;;4954625;29;20568;-82
2022/06/18 09:39:55;;;;;;;3.43;1.23;;;49.30;30.20;;;;;;4954974;29;20666;-82
2022/06/18 09:42:39;;;;;;;3.70;1.03;;;49.30;29.90;;;;;;4954392;29;20583;-81
2022/06/18 09:45:14;;;;;;;2.47;1.00;;;49.30;29.90;;;;;;4954886;29;20610;-81
2022/06/18 09:47:46;;;;;;;3.50;1.03;;;49.30;30.10;;;;;;4954937;29;20567;-83
2022/06/18 09:50:13;;;;;;;3.30;0.90;;;49.30;29.70;;;;;;4961233;29;20579;-83
2022/06/18 09:52:41;;;;;;;3.23;1.13;;;49.30;29.40;;;;;;4961369;28;20580;-82
2022/06/18 09:55:21;;;;;;;3.83;1.50;;;49.20;29.70;;;;;;4957999;29;20634;-82
2022/06/18 09:57:58;;;;;;;2.33;1.33;;;49.20;29.80;;;;;;4957665;29;20576;-83
2022/06/18 10:00:29;;;;;;;5.70;1.63;;;49.20;29.80;;;;;;4955067;29;20564;-84
2022/06/18 10:03:04;;;;;;;6.90;1.80;;;49.20;29.50;;;;;;4954751;28;20603;-82
2022/06/18 10:08:36;;;;;;;4.07;1.30;;;49.30;29.60;;;;;;4955340;29;20942;-82
2022/06/18 10:11:10;;;;;;;2.70;1.20;;;49.30;29.30;;;;;;4937116;29;20596;-82
2022/06/18 10:13:43;;;;;;;4.10;1.70;;;49.30;29.40;;;;;;4955042;28;21155;-82
2022/06/18 10:16:37;;;;;;;3.00;1.10;;;49.20;29.60;;;;;;4956137;29;20619;-82
2022/06/18 10:19:09;;;;;;;4.77;1.50;;;49.20;29.40;;;;;;4955177;29;20616;-82
2022/06/18 10:22:00;;;;;;;3.53;1.50;;;49.20;29.40;;;;;;4939369;29;20715;-83
2022/06/18 10:24:40;;;;;;;4.50;1.57;;;49.30;29.70;;;;;;4939857;29;20656;-82
2022/06/18 10:27:13;;;;;;;4.23;1.47;;;49.30;28.90;;;;;;4956330;29;20662;-82
2022/06/18 10:29:51;;;;;;;3.70;1.23;;;49.30;28.60;;;;;;4955036;29;20588;-82
2022/06/18 10:32:38;;;;;;;6.93;1.50;;;49.20;28.60;;;;;;4955529;29;20678;-83
2022/06/18 10:35:26;;;;;;;3.57;1.33;;;49.10;28.30;;;;;;4939877;29;20677;-82
2022/06/18 10:38:05;;;;;;;2.37;1.30;;;48.90;28.50;;;;;;4958407;28;20936;-83
2022/06/18 10:40:48;;;;;;;2.57;1.60;;;48.80;28.80;;;;;;4937758;29;20579;-83
2022/06/18 10:43:43;;;;;;;3.40;1.30;;;48.80;28.60;;;;;;4936236;29;20623;-83
2022/06/18 10:46:14;;;;;;;3.43;1.60;;;48.70;28.40;;;;;;4953816;29;20663;-83
2022/06/18 10:48:49;;;;;;;4.20;1.47;;;48.60;28.80;;;;;;4936341;29;20584;-83
2022/06/18 10:51:19;;;;;;;3.27;1.67;;;48.60;28.50;;;;;;4951647;29;20597;-83
2022/06/18 10:53:55;;;;;;;3.40;2.03;;;48.60;28.60;;;;;;4936351;29;20592;-83
2022/06/18 10:56:24;;;;;;;4.07;2.23;;;48.50;28.50;;;;;;4936727;29;20682;-83
2022/06/18 10:58:52;;;;;;;7.20;2.47;;;48.30;28.50;;;;;;4936188;29;20580;-84
2022/06/18 11:01:46;;;;;;;2.27;1.17;;;48.20;28.40;;;;;;4936003;29;20556;-83
2022/06/18 11:04:21;;;;;;;5.67;1.40;;;48.10;28.50;;;;;;4952298;28;20609;-84
2022/06/18 11:06:52;;;;;;;2.60;1.20;;;48.00;28.40;;;;;;4954422;29;20630;-84
2022/06/18 11:09:44;;;;;;;2.60;1.27;;;47.90;28.50;;;;;;4920569;29;20584;-84
2022/06/18 11:12:27;;;;;;;4.43;1.17;;;47.80;28.70;;;;;;4935144;29;20592;-83
2022/06/18 11:14:53;;;;;;;3.53;1.70;;;47.80;28.50;;;;;;4936106;29;21202;-84
2022/06/18 11:17:28;;;;;;;3.53;1.40;;;47.60;28.70;;;;;;4953424;29;20632;-82
2022/06/18 11:20:06;;;;;;;3.00;1.53;;;47.50;28.80;;;;;;4935608;29;20583;-83
2022/06/18 11:22:32;;;;;;;3.80;2.30;;;47.40;28.60;;;;;;4953233;28;20936;-82
2022/06/18 11:25:01;;;;;;;2.50;1.50;;;47.30;28.70;;;;;;4954728;29;20572;-82
2022/06/18 11:27:34;;;;;;;4.20;1.70;;;47.30;28.60;;;;;;4921275;29;20180;-82
2022/06/18 11:30:09;;;;;;;2.43;1.50;;;47.10;28.60;;;;;;4953150;29;20579;-83
2022/06/18 11:32:45;;;;;;;2.93;1.20;;;47.00;28.60;;;;;;4965255;23;20678;-74
2022/06/18 11:35:13;;;;;;;3.87;1.33;;;46.80;28.60;;;;;;4981350;28;21055;-74
2022/06/18 11:37:40;;;;;;;5.87;1.70;;;46.80;29.10;;;;;;4987573;28;20586;-74
2022/06/18 11:40:06;;;;;;;2.43;1.13;;;46.60;28.70;;;;;;4976569;28;20694;-74
2022/06/18 11:42:56;;;;;;;4.83;1.40;;;46.50;28.90;;;;;;4989848;28;21068;-74
2022/06/18 11:45:45;;;;;;;2.63;1.33;;;46.40;29.10;;;;;;4991759;28;20306;-74
2022/06/18 11:48:40;;;;;;;3.63;1.30;;;46.30;28.80;;;;;;5006943;28;20638;-75
2022/06/18 11:51:23;;;;;;;4.30;2.23;;;46.20;29.20;;;;;;4993328;28;20576;-74
2022/06/18 11:54:40;;;;;;;1.70;1.47;;;46.10;29.30;;;;;;4995087;28;20585;-74
2022/06/18 11:57:15;;;;;;;3.83;1.10;;;46.00;29.30;;;;;;4997306;28;20614;-74
2022/06/18 11:59:40;;;;;;;3.30;1.40;;;45.90;29.10;;;;;;4995019;28;20566;-74
2022/06/18 12:02:48;;;;;;;5.37;1.30;;;45.50;28.80;;;;;;4994573;28;20613;-74
2022/06/18 12:05:21;;;;;;;6.20;1.50;;;44.90;28.60;;;;;;4972280;28;20187;-74
2022/06/18 12:07:52;;;;;;;2.67;1.40;;;44.20;29.00;;;;;;4995024;28;20578;-74
2022/06/18 12:10:24;;;;;;;3.33;1.53;;;43.90;29.70;;;;;;4994471;28;20573;-74
2022/06/18 12:13:01;;;;;;;5.00;1.13;;;43.80;30.00;;;;;;4994722;28;20606;-75
2022/06/18 12:15:47;;;;;;;4.50;1.27;;;43.70;30.00;;;;;;4977113;28;20982;-74
2022/06/18 12:18:22;;;;;;;3.50;2.50;;;43.60;30.60;;;;;;4994803;28;20569;-74
2022/06/18 12:21:00;;;;;;;6.13;1.90;;;43.50;30.00;;;;;;4994026;28;21001;-74
2022/06/18 12:23:29;;;;;;;5.93;1.87;;;43.40;30.10;;;;;;4994523;28;20624;-74
2022/06/18 12:26:13;;;;;;;3.10;1.30;;;43.30;30.00;;;;;;4994512;28;20578;-74
2022/06/18 12:29:02;;;;;;;4.20;2.00;;;43.20;30.30;;;;;;5009599;28;20673;-74
2022/06/18 12:31:45;;;;;;;6.87;2.10;;;43.20;30.60;;;;;;4993802;28;20952;-74
2022/06/18 12:34:20;;;;;;;4.27;1.40;;;43.20;30.60;;;;;;4994541;28;20720;-74
2022/06/18 12:37:26;;;;;;;3.87;1.60;;;43.10;30.50;;;;;;4993194;28;20628;-73
2022/06/18 12:40:08;;;;;;;3.73;1.53;;;43.00;30.20;;;;;;4987301;28;20589;-74
2022/06/18 12:43:06;;;;;;;3.13;1.37;;;42.90;30.30;;;;;;4993889;28;20594;-74
2022/06/18 12:45:42;;;;;;;4.87;1.50;;;42.60;30.90;;;;;;4991095;28;20699;-74
2022/06/18 12:48:17;;;;;;;4.10;1.87;;;42.50;30.60;;;;;;5009468;28;20566;-74
2022/06/18 12:50:57;;;;;;;7.00;2.37;;;42.30;30.20;;;;;;4992132;28;20562;-74
2022/06/18 12:53:25;;;;;;;4.50;1.60;;;42.10;30.80;;;;;;4994061;28;20601;-74
2022/06/18 12:56:03;;;;;;;3.67;1.60;;;41.90;30.40;;;;;;4993864;28;20578;-74
2022/06/18 12:58:47;;;;;;;7.20;1.60;;;41.70;30.90;;;;;;4993968;28;20566;-75
2022/06/18 13:01:25;;;;;;;3.60;1.53;;;41.50;31.00;;;;;;4991871;28;20570;-74
2022/06/18 13:04:11;;;;;;;4.13;1.60;;;41.40;31.10;;;;;;4993838;28;20570;-74
2022/06/18 13:06:46;;;;;;;3.40;1.30;;;41.20;31.30;;;;;;4992798;28;20993;-74
2022/06/18 13:09:51;;;;;;;5.70;2.10;;;41.10;31.20;;;;;;4993821;28;20554;-75
2022/06/18 13:12:38;;;;;;;3.60;1.40;;;40.90;31.40;;;;;;4993541;28;20613;-75
2022/06/18 13:15:16;;;;;;;6.87;1.97;;;40.90;31.40;;;;;;4993895;28;20911;-75
2022/06/18 13:17:53;;;;;;;4.70;1.87;;;40.70;31.50;;;;;;5009307;28;20578;-75
2022/06/18 13:20:31;;;;;;;5.00;1.80;;;40.60;30.90;;;;;;4992348;28;20676;-75
2022/06/18 13:22:57;;;;;;;3.50;1.40;;;40.50;30.70;;;;;;4993494;28;20605;-75
2022/06/18 13:28:23;;;;;;;3.60;1.33;;;40.40;31.20;;;;;;4993632;28;20171;-76
2022/06/18 13:31:12;;;;;;;5.67;2.00;;;40.30;31.00;;;;;;5008207;28;20637;-74
2022/06/18 13:34:09;;;;;;;5.20;2.30;;;40.20;31.00;;;;;;4984338;28;20643;-75